createdAt,value
2018-05-01T00:01:44.804Z,12.90
2018-05-01T00:04:12.460Z,12.90
2018-05-01T00:06:40.765Z,12.90
2018-05-01T00:09:08.313Z,12.90
2018-05-01T00:11:35.836Z,12.80
2018-05-01T00:14:03.361Z,12.90
2018-05-01T00:16:30.870Z,12.90
2018-05-01T00:18:58.409Z,12.90
2018-05-01T00:21:25.918Z,12.90
2018-05-01T00:23:53.452Z,12.90
2018-05-01T00:26:20.961Z,12.80
2018-05-01T00:28:49.254Z,12.80
2018-05-01T00:31:16.762Z,12.80
2018-05-01T00:33:45.064Z,12.80
2018-05-01T00:36:12.823Z,12.80
2018-05-01T00:38:40.859Z,12.80
2018-05-01T00:41:08.552Z,12.70
2018-05-01T00:43:37.037Z,12.70
2018-05-01T00:46:04.651Z,12.70
2018-05-01T00:48:32.569Z,12.70
2018-05-01T00:51:00.085Z,12.80
2018-05-01T00:53:27.627Z,12.70
2018-05-01T00:55:55.158Z,12.70
2018-05-01T00:58:22.689Z,12.70
2018-05-01T01:00:50.204Z,12.60
2018-05-01T01:03:17.735Z,12.60
2018-05-01T01:05:45.256Z,12.60
2018-05-01T01:08:12.799Z,12.60
2018-05-01T01:10:41.069Z,11.70
2018-05-01T01:13:08.568Z,11.70
2018-05-01T01:15:36.861Z,11.30
2018-05-01T01:18:05.131Z,11.30
2018-05-01T01:20:32.660Z,11.30
2018-05-01T01:23:00.933Z,11.20
2018-05-01T01:25:28.468Z,11.20
2018-05-01T01:27:56.748Z,11.20
2018-05-01T01:30:24.291Z,11.20
2018-05-01T01:32:52.680Z,11.30
2018-05-01T01:35:19.706Z,11.10
2018-05-01T01:37:46.712Z,11.00
2018-05-01T01:40:13.742Z,10.90
2018-05-01T01:42:40.761Z,10.90
2018-05-01T01:45:08.558Z,10.90
2018-05-01T01:47:35.571Z,10.90
2018-05-01T01:50:02.629Z,10.90
2018-05-01T01:52:29.642Z,10.70
2018-05-01T01:54:56.674Z,10.70
2018-05-01T01:57:24.451Z,10.20
2018-05-01T01:59:52.247Z,10.20
2018-05-01T02:02:19.263Z,10.10
2018-05-01T02:04:46.308Z,10.10
2018-05-01T02:07:13.328Z,10.00
2018-05-01T02:09:40.375Z,10.00
2018-05-01T02:12:08.152Z,9.90
2018-05-01T02:14:35.941Z,9.90
2018-05-01T02:17:03.721Z,9.80
2018-05-01T02:19:30.751Z,9.80
2018-05-01T02:21:57.774Z,9.80
2018-05-01T02:24:24.806Z,9.80
2018-05-01T02:26:51.817Z,9.80
2018-05-01T02:29:18.844Z,9.80
2018-05-01T02:31:45.860Z,9.90
2018-05-01T02:34:13.655Z,9.80
2018-05-01T02:36:40.666Z,9.70
2018-05-01T02:39:07.701Z,9.70
2018-05-01T02:41:34.727Z,9.70
2018-05-01T02:44:02.518Z,9.70
2018-05-01T02:46:29.526Z,9.70
2018-05-01T02:48:56.551Z,9.60
2018-05-01T02:51:23.591Z,9.50
2018-05-01T02:53:50.600Z,9.50
2018-05-01T02:56:17.635Z,9.50
2018-05-01T02:58:44.637Z,9.50
2018-05-01T03:01:11.675Z,9.40
2018-05-01T03:03:38.684Z,9.40
2018-05-01T03:06:05.741Z,9.40
2018-05-01T03:08:33.513Z,9.40
2018-05-01T03:11:01.340Z,9.40
2018-05-01T03:13:28.363Z,9.40
2018-05-01T03:15:55.389Z,9.40
2018-05-01T03:18:22.396Z,9.40
2018-05-01T03:20:49.428Z,9.40
2018-05-01T03:23:17.210Z,9.30
2018-05-01T03:25:45.007Z,9.30
2018-05-01T03:28:12.014Z,9.30
2018-05-01T03:30:39.058Z,9.30
2018-05-01T03:33:06.063Z,9.40
2018-05-01T03:35:33.877Z,9.40
2018-05-01T03:38:00.884Z,9.40
2018-05-01T03:40:27.925Z,9.40
2018-05-01T03:42:54.940Z,9.50
2018-05-01T03:45:21.993Z,9.50
2018-05-01T03:47:49.004Z,9.50
2018-05-01T03:50:16.030Z,9.40
2018-05-01T03:52:43.050Z,9.30
2018-05-01T03:55:10.100Z,9.30
2018-05-01T03:57:37.120Z,9.00
2018-05-01T04:00:04.162Z,9.00
2018-05-01T04:02:31.178Z,9.00
2018-05-01T04:04:59.875Z,8.80
2018-05-01T04:07:26.851Z,8.80
2018-05-01T04:09:54.668Z,8.80
2018-05-01T04:12:21.750Z,8.80
2018-05-01T04:14:48.889Z,8.80
2018-05-01T04:17:15.925Z,8.70
2018-05-01T04:19:43.709Z,8.50
2018-05-01T04:22:10.750Z,8.50
2018-05-01T04:24:38.521Z,8.50
2018-05-01T04:27:05.549Z,8.50
2018-05-01T04:29:32.582Z,8.50
2018-05-01T04:31:59.609Z,8.50
2018-05-01T04:34:27.433Z,8.40
2018-05-01T04:36:54.497Z,8.30
2018-05-01T04:39:21.506Z,8.30
2018-05-01T04:41:49.304Z,8.20
2018-05-01T04:44:16.310Z,8.10
2018-05-01T04:46:43.342Z,8.20
2018-05-01T04:49:10.358Z,8.20
2018-05-01T04:51:37.395Z,8.20
2018-05-01T04:54:04.422Z,8.10
2018-05-01T04:56:31.454Z,8.20
2018-05-01T04:58:59.224Z,7.90
2018-05-01T05:01:27.018Z,8.00
2018-05-01T05:03:54.033Z,8.00
2018-05-01T05:06:21.068Z,8.00
2018-05-01T05:08:48.078Z,8.00
2018-05-01T05:11:15.870Z,7.90
2018-05-01T05:13:42.873Z,7.80
2018-05-01T05:16:09.907Z,8.00
2018-05-01T05:18:36.916Z,8.00
2018-05-01T05:21:03.952Z,8.10
2018-05-01T05:23:31.253Z,8.10
2018-05-01T05:25:59.050Z,8.10
2018-05-01T05:28:26.056Z,8.10
2018-05-01T05:30:53.089Z,8.00
2018-05-01T05:33:20.098Z,8.00
2018-05-01T05:35:47.128Z,8.10
2018-05-01T05:38:14.133Z,8.20
2018-05-01T05:40:41.924Z,7.90
2018-05-01T05:43:09.712Z,8.00
2018-05-01T05:45:36.716Z,8.00
2018-05-01T05:48:03.748Z,8.10
2018-05-01T05:50:30.766Z,8.10
2018-05-01T05:52:58.579Z,8.20
2018-05-01T05:55:25.590Z,8.10
2018-05-01T05:57:52.635Z,8.20
2018-05-01T06:00:19.653Z,8.30
2018-05-01T06:02:46.682Z,8.20
2018-05-01T06:05:14.452Z,8.10
2018-05-01T06:07:41.513Z,8.00
2018-05-01T06:10:08.526Z,8.10
2018-05-01T06:12:35.562Z,8.00
2018-05-01T06:15:02.570Z,8.00
2018-05-01T06:17:29.632Z,8.10
2018-05-01T06:19:56.649Z,8.20
2018-05-01T06:22:23.691Z,8.20
2018-05-01T06:24:51.476Z,8.20
2018-05-01T06:27:18.503Z,8.20
2018-05-01T06:29:45.517Z,8.30
2018-05-01T06:32:12.571Z,7.90
2018-05-01T06:34:39.589Z,8.00
2018-05-01T06:37:06.620Z,8.10
2018-05-01T06:39:33.644Z,8.10
2018-05-01T06:42:00.674Z,8.00
2018-05-01T06:44:28.443Z,8.00
2018-05-01T06:46:55.468Z,8.00
2018-05-01T06:49:22.487Z,7.90
2018-05-01T06:51:49.516Z,8.00
2018-05-01T06:54:16.524Z,7.90
2018-05-01T06:56:43.550Z,7.80
2018-05-01T06:59:11.339Z,8.10
2018-05-01T07:01:39.142Z,8.10
2018-05-01T07:04:06.160Z,8.00
2018-05-01T07:06:33.204Z,8.10
2018-05-01T07:09:00.212Z,8.10
2018-05-01T07:11:27.240Z,8.20
2018-05-01T07:13:55.048Z,8.00
2018-05-01T07:16:22.054Z,8.00
2018-05-01T07:18:49.093Z,8.00
2018-05-01T07:21:16.159Z,8.20
2018-05-01T07:23:43.152Z,8.40
2018-05-01T07:26:10.162Z,8.70
2018-05-01T07:28:37.190Z,8.50
2018-05-01T07:31:04.987Z,8.60
2018-05-01T07:33:32.037Z,8.60
2018-05-01T07:35:59.060Z,8.60
2018-05-01T07:38:26.122Z,8.60
2018-05-01T07:40:53.146Z,8.80
2018-05-01T07:43:20.187Z,8.90
2018-05-01T07:45:47.211Z,8.80
2018-05-01T07:48:15.023Z,8.90
2018-05-01T07:50:42.046Z,8.80
2018-05-01T07:53:09.087Z,9.20
2018-05-01T07:55:36.110Z,9.40
2018-05-01T07:58:03.182Z,9.60
2018-05-01T08:00:30.747Z,9.50
2018-05-01T08:02:57.791Z,9.70
2018-05-01T08:05:24.798Z,9.70
2018-05-01T08:07:52.155Z,10.00
2018-05-01T08:10:20.059Z,9.60
2018-05-01T08:12:47.116Z,9.50
2018-05-01T08:15:14.125Z,9.50
2018-05-01T08:17:41.156Z,9.70
2018-05-01T08:20:08.939Z,10.00
2018-05-01T08:22:36.750Z,10.10
2018-05-01T08:25:03.765Z,10.10
2018-05-01T08:27:31.589Z,10.70
2018-05-01T08:30:00.652Z,10.70
2018-05-01T08:32:28.650Z,10.50
2018-05-01T08:34:56.527Z,10.30
2018-05-01T08:37:24.339Z,10.30
2018-05-01T08:39:51.721Z,10.30
2018-05-01T08:42:18.887Z,10.40
2018-05-01T08:44:45.928Z,10.60
2018-05-01T08:47:12.940Z,10.60
2018-05-01T08:49:39.985Z,10.60
2018-05-01T08:52:07.010Z,10.70
2018-05-01T08:54:34.052Z,10.70
2018-05-01T08:57:01.513Z,10.80
2018-05-01T08:59:28.588Z,10.90
2018-05-01T09:01:55.590Z,11.20
2018-05-01T09:04:22.648Z,11.30
2018-05-01T09:06:49.657Z,11.40
2018-05-01T09:09:16.692Z,11.30
2018-05-01T09:11:43.719Z,11.20
2018-05-01T09:14:10.787Z,11.40
2018-05-01T09:16:37.804Z,11.70
2018-05-01T09:19:04.837Z,11.60
2018-05-01T09:21:32.664Z,12.00
2018-05-01T09:23:59.700Z,12.00
2018-05-01T09:26:26.712Z,12.00
2018-05-01T09:28:53.745Z,12.20
2018-05-01T09:31:20.776Z,12.20
2018-05-01T09:33:47.827Z,12.40
2018-05-01T09:36:14.900Z,12.50
2018-05-01T09:38:42.108Z,12.00
2018-05-01T09:41:09.263Z,11.70
2018-05-01T09:43:36.334Z,11.40
2018-05-01T09:46:03.371Z,11.50
2018-05-01T09:48:30.428Z,11.90
2018-05-01T09:50:57.454Z,11.80
2018-05-01T09:53:26.078Z,11.40
2018-05-01T09:55:54.774Z,11.30
2018-05-01T09:58:22.410Z,11.30
2018-05-01T10:00:53.435Z,11.50
2018-05-01T10:03:20.962Z,11.80
2018-05-01T10:05:48.660Z,11.70
2018-05-01T10:08:16.178Z,11.80
2018-05-01T10:10:44.463Z,11.90
2018-05-01T10:13:11.969Z,11.80
2018-05-01T10:15:39.496Z,12.00
2018-05-01T10:18:07.807Z,12.30
2018-05-01T10:20:36.111Z,12.40
2018-05-01T10:23:03.619Z,12.30
2018-05-01T10:25:31.171Z,12.60
2018-05-01T10:27:58.696Z,12.70
2018-05-01T10:30:26.226Z,12.40
2018-05-01T10:32:53.734Z,12.20
2018-05-01T10:35:21.284Z,12.60
2018-05-01T10:37:48.805Z,12.10
2018-05-01T10:40:17.091Z,12.70
2018-05-01T10:42:45.358Z,12.70
2018-05-01T10:45:12.882Z,12.70
2018-05-01T10:47:40.395Z,12.80
2018-05-01T10:50:07.918Z,13.10
2018-05-01T10:52:35.423Z,12.70
2018-05-01T10:55:02.944Z,12.40
2018-05-01T10:57:31.211Z,12.80
2018-05-01T10:59:58.733Z,12.80
2018-05-01T11:02:26.235Z,12.70
2018-05-01T11:04:53.774Z,13.20
2018-05-01T11:07:21.304Z,13.70
2018-05-01T11:09:49.604Z,13.60
2018-05-01T11:12:17.109Z,13.60
2018-05-01T11:14:44.636Z,13.10
2018-05-01T11:17:12.900Z,13.40
2018-05-01T11:19:40.439Z,13.30
2018-05-01T11:22:07.952Z,13.90
2018-05-01T11:24:35.492Z,13.50
2018-05-01T11:27:03.006Z,13.60
2018-05-01T11:29:31.327Z,13.50
2018-05-01T11:31:58.843Z,13.40
2018-05-01T11:34:26.380Z,13.50
2018-05-01T11:36:53.907Z,13.70
2018-05-01T11:39:21.433Z,13.70
2018-05-01T11:41:48.934Z,13.60
2018-05-01T11:44:16.475Z,13.90
2018-05-01T11:46:44.006Z,13.50
2018-05-01T11:49:12.295Z,13.80
2018-05-01T11:51:40.582Z,13.90
2018-05-01T11:54:09.110Z,14.10
2018-05-01T11:56:36.653Z,14.10
2018-05-01T11:59:04.165Z,14.00
2018-05-01T12:01:31.684Z,13.60
2018-05-01T12:03:59.196Z,13.60
2018-05-01T12:06:26.729Z,13.60
2018-05-01T12:08:55.006Z,13.40
2018-05-01T12:11:22.537Z,13.30
2018-05-01T12:13:50.033Z,13.00
2018-05-01T12:16:17.570Z,13.40
2018-05-01T12:18:45.088Z,13.80
2018-05-01T12:21:12.624Z,14.20
2018-05-01T12:23:40.180Z,14.80
2018-05-01T12:26:07.689Z,14.40
2018-05-01T12:28:35.233Z,14.40
2018-05-01T12:31:02.759Z,14.10
2018-05-01T12:33:31.420Z,14.20
2018-05-01T12:35:58.945Z,14.20
2018-05-01T12:38:27.212Z,14.10
2018-05-01T12:40:54.740Z,14.10
2018-05-01T12:43:22.246Z,14.00
2018-05-01T12:45:49.780Z,14.50
2018-05-01T12:48:17.409Z,14.00
2018-05-01T12:50:45.601Z,14.10
2018-05-01T12:53:13.885Z,13.90
2018-05-01T12:55:42.174Z,14.70
2018-05-01T12:58:10.448Z,14.80
2018-05-01T13:00:38.189Z,14.80
2018-05-01T13:03:05.703Z,15.40
2018-05-01T13:05:34.022Z,14.60
2018-05-01T13:08:01.544Z,14.60
2018-05-01T13:13:03.025Z,14.90
2018-05-01T13:15:30.557Z,14.60
2018-05-01T13:17:58.069Z,14.30
2018-05-01T13:20:25.610Z,13.90
2018-05-01T13:22:53.172Z,13.90
2018-05-01T13:25:20.724Z,14.40
2018-05-01T13:27:49.001Z,14.10
2018-05-01T13:30:16.521Z,14.10
2018-05-01T13:32:44.061Z,14.30
2018-05-01T13:35:12.357Z,14.80
2018-05-01T13:37:39.941Z,14.80
2018-05-01T13:40:07.459Z,13.90
2018-05-01T13:42:34.988Z,14.20
2018-05-01T13:45:02.523Z,13.90
2018-05-01T13:47:30.060Z,14.00
2018-05-01T13:49:57.573Z,14.30
2018-05-01T13:52:25.871Z,15.00
2018-05-01T13:54:54.144Z,15.50
2018-05-01T13:57:21.676Z,15.40
2018-05-01T13:59:49.219Z,15.30
2018-05-01T14:02:16.805Z,15.30
2018-05-01T14:04:44.362Z,15.20
2018-05-01T14:07:11.912Z,14.80
2018-05-01T14:09:40.190Z,14.40
2018-05-01T14:12:07.720Z,14.40
2018-05-01T14:14:35.249Z,14.40
2018-05-01T14:17:03.618Z,15.10
2018-05-01T14:19:31.141Z,15.10
2018-05-01T14:21:59.428Z,15.60
2018-05-01T14:24:26.936Z,15.50
2018-05-01T14:26:54.473Z,16.00
2018-05-01T14:29:21.992Z,15.70
2018-05-01T14:31:49.543Z,15.20
2018-05-01T14:34:17.053Z,15.60
2018-05-01T14:36:44.626Z,15.10
2018-05-01T14:39:12.911Z,15.30
2018-05-01T14:41:40.466Z,15.30
2018-05-01T14:44:08.005Z,15.50
2018-05-01T14:46:36.341Z,14.80
2018-05-01T14:49:03.886Z,14.80
2018-05-01T14:51:31.406Z,14.30
2018-05-01T14:53:59.712Z,14.40
2018-05-01T14:56:27.231Z,14.40
2018-05-01T14:58:54.775Z,14.80
2018-05-01T15:01:22.377Z,15.10
2018-05-01T15:03:50.606Z,15.10
2018-05-01T15:06:18.877Z,15.10
2018-05-01T15:08:47.198Z,15.10
2018-05-01T15:11:14.702Z,15.10
2018-05-01T15:13:42.264Z,15.00
2018-05-01T15:16:09.771Z,15.10
2018-05-01T15:18:37.319Z,15.50
2018-05-01T15:21:04.895Z,15.20
2018-05-01T15:23:32.452Z,15.20
2018-05-01T15:25:59.983Z,15.10
2018-05-01T15:28:28.268Z,14.70
2018-05-01T15:30:56.537Z,14.60
2018-05-01T15:33:24.084Z,14.60
2018-05-01T15:35:51.584Z,15.00
2018-05-01T15:38:19.122Z,14.60
2018-05-01T15:40:46.665Z,15.10
2018-05-01T15:43:14.204Z,15.30
2018-05-01T15:45:41.705Z,15.00
2018-05-01T15:48:09.230Z,15.00
2018-05-01T15:50:36.732Z,15.10
2018-05-01T15:53:04.284Z,15.00
2018-05-01T15:55:31.810Z,14.90
2018-05-01T15:57:59.340Z,15.00
2018-05-01T16:00:27.620Z,15.10
2018-05-01T16:02:55.163Z,15.00
2018-05-01T16:05:22.684Z,14.90
2018-05-01T16:07:50.972Z,14.80
2018-05-01T16:10:19.248Z,14.90
2018-05-01T16:12:47.521Z,15.00
2018-05-01T16:15:15.058Z,15.00
2018-05-01T16:17:42.577Z,15.00
2018-05-01T16:20:10.882Z,15.00
2018-05-01T16:22:39.152Z,15.10
2018-05-01T16:25:07.453Z,14.60
2018-05-01T16:27:35.738Z,14.60
2018-05-01T16:30:04.054Z,14.80
2018-05-01T16:32:31.560Z,14.80
2018-05-01T16:34:59.090Z,15.10
2018-05-01T16:37:26.602Z,14.90
2018-05-01T16:39:54.161Z,14.60
2018-05-01T16:42:21.675Z,14.60
2018-05-01T16:44:49.255Z,14.70
2018-05-01T16:47:17.555Z,14.60
2018-05-01T16:49:45.102Z,14.50
2018-05-01T16:52:12.613Z,14.40
2018-05-01T16:54:40.158Z,14.50
2018-05-01T16:57:08.441Z,14.90
2018-05-01T16:59:36.008Z,14.90
2018-05-01T17:02:04.637Z,14.60
2018-05-01T17:04:32.292Z,14.50
2018-05-01T17:07:00.582Z,14.60
2018-05-01T17:09:28.871Z,14.50
2018-05-01T17:11:57.155Z,14.70
2018-05-01T17:14:24.707Z,14.60
2018-05-01T17:16:52.231Z,14.30
2018-05-01T17:19:19.782Z,14.10
2018-05-01T17:21:48.081Z,14.00
2018-05-01T17:24:15.674Z,14.00
2018-05-01T17:26:43.172Z,14.00
2018-05-01T17:29:10.847Z,13.90
2018-05-01T17:31:38.386Z,13.70
2018-05-01T17:34:05.913Z,13.70
2018-05-01T17:36:34.216Z,13.40
2018-05-01T17:39:02.535Z,13.30
2018-05-01T17:41:30.046Z,13.30
2018-05-01T17:43:57.598Z,13.40
2018-05-01T17:46:25.117Z,13.50
2018-05-01T17:48:52.711Z,13.50
2018-05-01T17:51:20.276Z,13.40
2018-05-01T17:53:48.578Z,13.20
2018-05-01T17:56:16.850Z,13.30
2018-05-01T17:58:45.179Z,13.20
2018-05-01T18:01:12.676Z,13.20
2018-05-01T18:03:40.207Z,13.30
2018-05-01T18:06:07.720Z,13.20
2018-05-01T18:08:35.263Z,13.00
2018-05-01T18:11:02.768Z,12.90
2018-05-01T18:13:30.617Z,12.90
2018-05-01T18:15:58.121Z,12.80
2018-05-01T18:18:25.668Z,12.80
2018-05-01T18:20:53.170Z,12.80
2018-05-01T18:23:20.727Z,12.70
2018-05-01T18:25:48.247Z,12.70
2018-05-01T18:28:15.752Z,12.70
2018-05-01T18:30:43.358Z,12.60
2018-05-01T18:33:10.786Z,12.50
2018-05-01T18:35:38.312Z,12.40
2018-05-01T18:38:05.830Z,12.30
2018-05-01T18:40:33.393Z,12.30
2018-05-01T18:43:00.892Z,12.30
2018-05-01T18:45:28.454Z,12.30
2018-05-01T18:47:55.966Z,12.20
2018-05-01T18:50:24.293Z,12.10
2018-05-01T18:52:51.813Z,12.10
2018-05-01T18:55:19.361Z,12.00
2018-05-01T18:57:46.888Z,11.90
2018-05-01T19:00:15.190Z,11.70
2018-05-01T19:02:42.742Z,11.70
2018-05-01T19:05:11.036Z,11.60
2018-05-01T19:07:39.323Z,11.60
2018-05-01T19:10:07.616Z,11.60
2018-05-01T19:12:35.877Z,11.60
2018-05-01T19:15:03.405Z,11.50
2018-05-01T19:17:30.964Z,11.40
2018-05-01T19:19:58.584Z,11.40
2018-05-01T19:22:26.823Z,11.40
2018-05-01T19:24:54.349Z,11.30
2018-05-01T19:27:21.919Z,11.40
2018-05-01T19:29:51.165Z,11.40
2018-05-01T19:32:19.462Z,11.40
2018-05-01T19:34:46.995Z,11.30
2018-05-01T19:37:14.530Z,11.30
2018-05-01T19:39:42.108Z,11.30
2018-05-01T19:42:10.358Z,11.20
2018-05-01T19:44:40.266Z,11.20
2018-05-01T19:47:07.817Z,11.20
2018-05-01T19:49:35.330Z,11.10
2018-05-01T19:52:03.612Z,11.10
2018-05-01T19:54:31.901Z,11.20
2018-05-01T19:57:00.188Z,11.10
2018-05-01T19:59:28.495Z,11.10
2018-05-01T20:01:56.794Z,11.10
2018-05-01T20:04:24.300Z,11.10
2018-05-01T20:06:57.928Z,11.10
2018-05-01T20:09:25.799Z,11.10
2018-05-01T20:11:53.308Z,11.00
2018-05-01T20:14:21.613Z,11.00
2018-05-01T20:16:49.883Z,10.90
2018-05-01T20:19:18.163Z,11.00
2018-05-01T20:21:45.694Z,10.90
2018-05-01T20:24:13.197Z,11.00
2018-05-01T20:26:40.737Z,11.00
2018-05-01T20:29:08.251Z,11.00
2018-05-01T20:31:36.560Z,10.80
2018-05-01T20:34:04.865Z,10.80
2018-05-01T20:36:32.385Z,10.80
2018-05-01T20:38:59.885Z,10.80
2018-05-01T20:41:28.171Z,10.70
2018-05-01T20:43:56.464Z,10.60
2018-05-01T20:46:24.756Z,10.60
2018-05-01T20:48:53.026Z,10.60
2018-05-01T20:51:20.542Z,10.60
2018-05-01T20:53:48.064Z,10.50
2018-05-01T20:56:15.560Z,10.50
2018-05-01T20:58:43.885Z,10.40
2018-05-01T21:01:11.393Z,10.40
2018-05-01T21:03:38.916Z,10.40
2018-05-01T21:06:06.420Z,10.40
2018-05-01T21:08:33.953Z,10.40
2018-05-01T21:11:01.465Z,10.30
2018-05-01T21:13:29.001Z,10.30
2018-05-01T21:15:56.511Z,10.20
2018-05-01T21:18:24.030Z,10.10
2018-05-01T21:20:51.543Z,10.00
2018-05-01T21:23:19.072Z,10.00
2018-05-01T21:25:46.587Z,9.90
2018-05-01T21:28:14.109Z,9.90
2018-05-01T21:30:42.370Z,9.80
2018-05-01T21:33:10.687Z,9.80
2018-05-01T21:35:39.006Z,9.50
2018-05-01T21:38:06.538Z,9.70
2018-05-01T21:40:34.836Z,9.70
2018-05-01T21:43:02.466Z,9.70
2018-05-01T21:45:29.966Z,9.70
2018-05-01T21:47:57.506Z,9.70
2018-05-01T21:50:27.539Z,9.70
2018-05-01T21:52:55.108Z,9.80
2018-05-01T21:55:22.759Z,9.90
2018-05-01T21:57:50.571Z,9.80
2018-05-01T22:00:19.088Z,9.60
2018-05-01T22:02:46.641Z,9.60
2018-05-01T22:05:15.422Z,9.60
2018-05-01T22:07:43.330Z,9.60
2018-05-01T22:10:11.223Z,9.50
2018-05-01T22:12:38.975Z,9.50
2018-05-01T22:15:07.814Z,9.50
2018-05-01T22:17:35.737Z,9.40
2018-05-01T22:20:04.256Z,9.30
2018-05-01T22:22:32.151Z,9.30
2018-05-01T22:24:59.979Z,9.30
2018-05-01T22:27:27.910Z,9.20
2018-05-01T22:29:55.547Z,9.20
2018-05-01T22:32:23.430Z,9.20
2018-05-01T22:34:51.168Z,9.40
2018-05-01T22:37:18.709Z,9.30
2018-05-01T22:39:46.216Z,9.20
2018-05-01T22:42:13.756Z,9.20
2018-05-01T22:44:42.773Z,9.10
2018-05-01T22:47:10.318Z,9.00
2018-05-01T22:49:37.923Z,9.10
2018-05-01T22:52:06.204Z,9.00
2018-05-01T22:54:33.737Z,8.90
2018-05-01T22:57:01.311Z,8.90
2018-05-01T22:59:29.721Z,9.00
2018-05-01T23:01:57.224Z,9.00
2018-05-01T23:04:24.752Z,8.90
2018-05-01T23:06:52.260Z,8.90
2018-05-01T23:09:20.563Z,8.90
2018-05-01T23:11:48.944Z,8.80
2018-05-01T23:14:17.250Z,8.70
2018-05-01T23:16:44.744Z,8.70
2018-05-01T23:19:12.277Z,8.80
2018-05-01T23:21:40.547Z,8.60
2018-05-01T23:24:08.092Z,8.60
2018-05-01T23:26:35.605Z,8.50
2018-05-01T23:29:03.905Z,8.30
2018-05-01T23:31:32.190Z,8.30
2018-05-01T23:34:00.468Z,8.30
2018-05-01T23:36:27.988Z,8.30
2018-05-01T23:38:55.512Z,8.30
2018-05-01T23:41:23.790Z,8.30
2018-05-01T23:43:51.323Z,8.30
2018-05-01T23:46:18.824Z,8.20
2018-05-01T23:48:46.359Z,8.10
2018-05-01T23:51:13.874Z,8.10
2018-05-01T23:53:42.176Z,8.10
2018-05-01T23:56:10.453Z,8.00
2018-05-01T23:58:37.967Z,8.00
